createdAt,value
2019-02-26T00:01:21.072Z,16.57
2019-02-26T00:03:51.558Z,18.13
2019-02-26T00:06:24.857Z,19.10
2019-02-26T00:08:56.063Z,17.60
2019-02-26T00:11:26.713Z,17.60
2019-02-26T00:13:58.986Z,16.67
2019-02-26T00:16:29.485Z,17.67
2019-02-26T00:19:02.657Z,17.43
2019-02-26T00:21:32.749Z,17.17
2019-02-26T00:24:04.871Z,17.40
2019-02-26T00:26:38.357Z,18.00
2019-02-26T00:29:08.463Z,17.83
2019-02-26T00:31:39.205Z,17.07
2019-02-26T00:34:10.827Z,17.63
2019-02-26T00:36:41.876Z,16.40
2019-02-26T00:39:12.131Z,16.53
2019-02-26T00:41:42.779Z,15.67
2019-02-26T00:44:12.958Z,15.93
2019-02-26T00:46:43.230Z,16.33
2019-02-26T00:49:13.515Z,16.90
2019-02-26T00:51:46.089Z,15.57
2019-02-26T00:54:20.203Z,16.07
2019-02-26T00:56:48.913Z,17.03
2019-02-26T00:59:19.157Z,16.10
2019-02-26T01:01:50.297Z,16.83
2019-02-26T01:04:21.571Z,17.47
2019-02-26T01:06:51.813Z,18.30
2019-02-26T01:09:23.062Z,18.00
2019-02-26T01:11:54.059Z,19.23
2019-02-26T01:14:24.684Z,18.00
2019-02-26T01:16:55.007Z,18.23
2019-02-26T01:19:25.949Z,17.07
2019-02-26T01:21:56.889Z,16.33
2019-02-26T01:24:28.072Z,17.20
2019-02-26T01:26:59.967Z,17.93
2019-02-26T01:29:32.207Z,18.37
2019-02-26T01:32:02.252Z,17.10
2019-02-26T01:34:32.501Z,16.93
2019-02-26T01:37:03.186Z,17.10
2019-02-26T01:39:38.108Z,16.53
2019-02-26T01:42:06.857Z,17.60
2019-02-26T01:44:38.231Z,16.83
2019-02-26T01:47:08.980Z,16.40
2019-02-26T01:49:39.845Z,16.07
2019-02-26T01:52:12.850Z,15.70
2019-02-26T01:54:43.529Z,17.83
2019-02-26T01:57:13.859Z,16.60
2019-02-26T01:59:44.207Z,17.00
2019-02-26T02:02:17.486Z,17.00
2019-02-26T02:04:46.699Z,15.77
2019-02-26T02:07:18.958Z,15.80
2019-02-26T02:09:51.284Z,15.43
2019-02-26T02:12:25.419Z,14.80
2019-02-26T02:14:54.282Z,16.20
2019-02-26T02:17:24.860Z,14.53
2019-02-26T02:19:55.178Z,15.43
2019-02-26T02:22:25.754Z,15.27
2019-02-26T02:24:56.738Z,15.23
2019-02-26T02:27:29.843Z,15.13
2019-02-26T02:29:58.883Z,14.40
2019-02-26T02:32:31.738Z,14.50
2019-02-26T02:35:06.287Z,14.67
2019-02-26T02:37:33.557Z,15.13
2019-02-26T02:40:03.771Z,15.50
2019-02-26T02:42:35.049Z,14.57
2019-02-26T02:45:10.401Z,14.60
2019-02-26T02:47:39.384Z,14.60
2019-02-26T02:50:12.670Z,14.67
2019-02-26T02:52:43.951Z,15.40
2019-02-26T02:55:18.557Z,14.80
2019-02-26T02:57:49.140Z,14.00
2019-02-26T03:00:20.615Z,15.37
2019-02-26T03:02:52.836Z,15.73
2019-02-26T03:05:22.106Z,15.27
2019-02-26T03:07:54.026Z,15.00
2019-02-26T03:10:28.404Z,14.57
2019-02-26T03:12:57.639Z,14.90
2019-02-26T03:15:30.079Z,15.37
2019-02-26T03:18:00.660Z,15.57
2019-02-26T03:20:34.019Z,15.43
2019-02-26T03:23:04.566Z,14.10
2019-02-26T03:25:35.031Z,15.37
2019-02-26T03:28:05.811Z,15.27
2019-02-26T03:30:40.548Z,14.73
2019-02-26T03:33:08.206Z,13.13
2019-02-26T03:35:38.457Z,15.17
2019-02-26T03:38:08.686Z,14.73
2019-02-26T03:40:38.953Z,14.87
2019-02-26T03:43:10.865Z,14.00
2019-02-26T03:45:41.120Z,15.13
2019-02-26T03:48:11.386Z,14.63
2019-02-26T03:50:44.073Z,16.03
2019-02-26T03:53:14.021Z,15.37
2019-02-26T03:55:44.331Z,15.87
2019-02-26T03:58:14.637Z,17.17
2019-02-26T04:00:46.836Z,16.20
2019-02-26T04:03:17.489Z,16.47
2019-02-26T04:05:48.284Z,16.27
2019-02-26T04:08:20.064Z,16.07
2019-02-26T04:10:53.658Z,16.20
2019-02-26T04:13:22.787Z,17.53
2019-02-26T04:15:56.265Z,16.53
2019-02-26T04:18:25.318Z,17.17
2019-02-26T04:20:56.776Z,18.23
2019-02-26T04:23:27.883Z,18.20
2019-02-26T04:26:47.572Z,16.70
2019-02-26T04:29:37.936Z,16.93
2019-02-26T04:32:40.960Z,18.13
2019-02-26T04:35:47.765Z,17.00
2019-02-26T04:39:03.106Z,16.10
2019-02-26T04:41:58.777Z,17.37
2019-02-26T04:45:04.960Z,16.87
2019-02-26T04:47:34.423Z,16.40
2019-02-26T04:50:06.229Z,15.83
2019-02-26T04:52:40.002Z,17.03
2019-02-26T04:55:08.793Z,17.87
2019-02-26T04:57:42.013Z,16.13
2019-02-26T05:00:11.140Z,16.43
2019-02-26T05:02:41.399Z,16.77
2019-02-26T05:05:11.737Z,16.80
2019-02-26T05:07:44.384Z,15.93
2019-02-26T05:10:13.929Z,14.70
2019-02-26T05:12:44.596Z,15.73
2019-02-26T05:15:19.797Z,15.63
2019-02-26T05:17:47.695Z,15.90
2019-02-26T05:20:18.988Z,16.27
2019-02-26T05:22:52.041Z,16.00
2019-02-26T05:25:22.271Z,16.27
2019-02-26T05:27:52.632Z,16.63
2019-02-26T05:30:22.914Z,16.07
2019-02-26T05:32:56.544Z,16.63
2019-02-26T05:35:25.428Z,15.57
2019-02-26T05:37:58.313Z,16.37
2019-02-26T05:40:27.950Z,16.93
2019-02-26T05:42:59.322Z,16.87
2019-02-26T05:45:33.082Z,17.53
2019-02-26T05:48:02.349Z,17.57
2019-02-26T05:50:35.610Z,16.57
2019-02-26T05:53:07.064Z,19.07
2019-02-26T05:55:36.548Z,18.00
2019-02-26T05:58:07.447Z,17.47
2019-02-26T06:00:39.070Z,16.97
2019-02-26T06:03:10.438Z,17.13
2019-02-26T06:05:45.774Z,16.83
2019-02-26T06:08:13.529Z,16.43
2019-02-26T06:10:43.800Z,16.27
2019-02-26T06:13:15.723Z,17.67
2019-02-26T06:15:46.134Z,15.70
2019-02-26T06:18:16.445Z,15.50
2019-02-26T06:20:48.499Z,16.00
2019-02-26T06:23:18.793Z,16.30
2019-02-26T06:25:49.991Z,17.27
2019-02-26T06:28:20.559Z,16.30
2019-02-26T06:30:51.132Z,15.07
2019-02-26T06:33:21.465Z,15.83
2019-02-26T06:35:51.872Z,16.53
2019-02-26T06:38:23.489Z,17.13
2019-02-26T06:40:54.482Z,18.23
2019-02-26T06:43:27.894Z,16.73
2019-02-26T06:46:00.161Z,17.30
2019-02-26T06:48:32.530Z,16.80
2019-02-26T06:51:13.284Z,18.10
2019-02-26T06:53:49.830Z,18.90
2019-02-26T06:56:20.886Z,19.20
2019-02-26T06:58:51.434Z,16.60
2019-02-26T07:01:21.996Z,17.83
2019-02-26T07:03:53.855Z,19.30
2019-02-26T07:06:25.572Z,20.00
2019-02-26T07:08:57.492Z,21.03
2019-02-26T07:11:28.641Z,21.10
2019-02-26T07:14:01.292Z,20.33
2019-02-26T07:16:32.271Z,20.43
2019-02-26T07:19:03.902Z,20.07
2019-02-26T07:21:35.425Z,19.93
2019-02-26T07:24:07.665Z,20.37
2019-02-26T07:26:38.634Z,18.97
2019-02-26T07:29:12.629Z,18.30
2019-02-26T07:31:42.451Z,18.80
2019-02-26T07:34:12.880Z,20.37
2019-02-26T07:36:45.615Z,20.70
2019-02-26T07:39:18.251Z,21.17
2019-02-26T07:41:49.383Z,21.83
2019-02-26T07:44:24.121Z,21.13
2019-02-26T07:46:54.238Z,20.60
2019-02-26T07:49:24.633Z,21.60
2019-02-26T07:51:57.758Z,21.93
2019-02-26T07:54:28.792Z,20.53
2019-02-26T07:57:02.685Z,21.17
2019-02-26T07:59:34.789Z,23.27
2019-02-26T08:02:06.272Z,22.20
2019-02-26T08:04:41.303Z,22.23
2019-02-26T08:07:19.026Z,23.43
2019-02-26T08:09:50.197Z,22.17
2019-02-26T08:12:22.122Z,22.07
2019-02-26T08:14:52.652Z,22.43
2019-02-26T08:17:30.618Z,22.80
2019-02-26T08:20:06.811Z,21.17
2019-02-26T08:22:38.015Z,20.93
2019-02-26T08:25:10.800Z,20.47
2019-02-26T08:27:46.159Z,19.20
2019-02-26T08:30:20.927Z,20.20
2019-02-26T08:32:56.081Z,20.03
2019-02-26T08:35:27.200Z,20.30
2019-02-26T08:37:57.896Z,20.40
2019-02-26T08:40:28.754Z,19.70
2019-02-26T08:42:59.686Z,19.70
2019-02-26T08:45:32.836Z,17.87
2019-02-26T08:48:05.730Z,18.33
2019-02-26T08:50:38.860Z,17.50
2019-02-26T08:53:08.924Z,17.97
2019-02-26T08:55:43.530Z,17.37
2019-02-26T08:58:17.870Z,17.80
2019-02-26T09:00:48.527Z,18.90
2019-02-26T09:03:20.442Z,18.93
2019-02-26T09:05:53.841Z,16.00
2019-02-26T09:08:27.186Z,16.00
2019-02-26T09:11:00.718Z,15.20
2019-02-26T09:13:33.379Z,15.43
2019-02-26T09:16:05.518Z,15.07
2019-02-26T09:18:37.901Z,14.90
2019-02-26T09:21:09.978Z,13.43
2019-02-26T09:23:40.040Z,13.63
2019-02-26T09:26:11.071Z,13.50
2019-02-26T09:28:41.599Z,15.50
2019-02-26T09:31:14.093Z,14.77
2019-02-26T09:33:45.517Z,13.87
2019-02-26T09:36:20.503Z,13.60
2019-02-26T09:38:51.385Z,14.50
2019-02-26T09:41:21.562Z,12.90
2019-02-26T09:44:01.916Z,13.27
2019-02-26T09:46:35.798Z,12.87
2019-02-26T09:49:05.483Z,13.77
2019-02-26T09:51:37.537Z,12.60
2019-02-26T09:54:10.311Z,11.97
2019-02-26T09:56:40.878Z,11.33
2019-02-26T09:59:12.985Z,12.47
2019-02-26T10:01:49.453Z,11.87
2019-02-26T10:04:22.102Z,11.83
2019-02-26T10:06:53.141Z,11.77
2019-02-26T10:09:25.009Z,11.30
2019-02-26T10:11:55.677Z,10.63
2019-02-26T10:14:28.707Z,10.60
2019-02-26T10:16:59.029Z,9.90
2019-02-26T10:19:31.558Z,9.77
2019-02-26T10:22:03.576Z,9.67
2019-02-26T10:24:39.712Z,10.20
2019-02-26T10:27:11.441Z,9.50
2019-02-26T10:29:45.045Z,9.63
2019-02-26T10:32:16.228Z,10.00
2019-02-26T10:34:46.783Z,10.30
2019-02-26T10:37:17.217Z,8.63
2019-02-26T10:39:49.738Z,9.57
2019-02-26T10:42:19.733Z,10.33
2019-02-26T10:44:50.495Z,10.23
2019-02-26T10:47:22.767Z,10.27
2019-02-26T10:49:53.680Z,9.80
2019-02-26T10:52:26.380Z,10.43
2019-02-26T10:54:57.530Z,10.00
2019-02-26T10:57:28.867Z,10.87
2019-02-26T11:00:02.615Z,10.17
2019-02-26T11:02:33.087Z,10.50
2019-02-26T11:05:03.775Z,10.70
2019-02-26T11:07:39.605Z,9.97
2019-02-26T11:10:07.767Z,10.20
2019-02-26T11:12:38.293Z,10.77
2019-02-26T11:15:12.855Z,11.00
2019-02-26T11:17:45.651Z,11.27
2019-02-26T11:20:15.807Z,10.60
2019-02-26T11:22:50.264Z,11.03
2019-02-26T11:25:24.180Z,11.03
2019-02-26T11:27:53.477Z,10.73
2019-02-26T11:30:26.094Z,11.07
2019-02-26T11:33:02.219Z,10.80
2019-02-26T11:35:29.185Z,11.63
2019-02-26T11:38:03.177Z,10.90
2019-02-26T11:40:35.192Z,11.67
2019-02-26T11:43:11.676Z,10.13
2019-02-26T11:45:41.980Z,10.27
2019-02-26T11:48:17.686Z,10.07
2019-02-26T11:50:52.437Z,9.33
2019-02-26T11:53:23.098Z,9.10
2019-02-26T11:55:55.097Z,9.23
2019-02-26T11:58:26.992Z,9.50
2019-02-26T12:01:00.304Z,9.00
2019-02-26T12:03:33.395Z,9.00
2019-02-26T12:06:02.633Z,8.63
2019-02-26T12:08:37.043Z,9.47
2019-02-26T12:11:11.247Z,8.47
2019-02-26T12:13:42.289Z,9.77
2019-02-26T12:16:12.091Z,9.00
2019-02-26T12:18:44.349Z,9.20
2019-02-26T12:21:17.804Z,9.50
2019-02-26T12:23:48.919Z,9.53
2019-02-26T12:26:28.052Z,9.70
2019-02-26T12:29:00.061Z,9.50
2019-02-26T12:31:34.505Z,9.90
2019-02-26T12:34:05.349Z,9.40
2019-02-26T12:36:36.283Z,9.50
2019-02-26T12:39:09.353Z,9.00
2019-02-26T12:41:41.749Z,9.50
2019-02-26T12:44:13.436Z,9.10
2019-02-26T12:46:44.942Z,9.50
2019-02-26T12:49:18.049Z,9.50
2019-02-26T12:51:56.784Z,9.77
2019-02-26T12:54:30.967Z,9.40
2019-02-26T12:57:04.046Z,8.97
2019-02-26T12:59:33.474Z,8.30
2019-02-26T13:02:09.347Z,9.03
2019-02-26T13:04:40.406Z,8.57
2019-02-26T13:07:14.409Z,8.50
2019-02-26T13:12:20.569Z,8.05
2019-02-26T13:14:50.408Z,9.17
2019-02-26T13:17:26.293Z,9.70
2019-02-26T13:19:58.969Z,9.20
2019-02-26T13:22:28.881Z,9.00
2019-02-26T13:25:03.686Z,9.90
2019-02-26T13:27:38.512Z,10.07
2019-02-26T13:30:10.409Z,9.83
2019-02-26T13:35:13.418Z,10.40
2019-02-26T13:40:38.145Z,9.80
2019-02-26T13:43:08.073Z,10.10
2019-02-26T13:45:39.970Z,8.60
2019-02-26T13:48:21.600Z,8.33
2019-02-26T13:53:54.332Z,8.73
2019-02-26T13:56:26.585Z,8.77
2019-02-26T13:58:56.978Z,8.43
2019-02-26T14:01:27.259Z,9.40
2019-02-26T14:03:58.149Z,8.30
2019-02-26T14:06:28.980Z,8.33
2019-02-26T14:08:59.764Z,8.43
2019-02-26T14:11:30.098Z,8.13
2019-02-26T14:14:00.449Z,8.50
2019-02-26T14:16:32.663Z,8.40
2019-02-26T14:19:02.883Z,8.50
2019-02-26T14:21:34.068Z,9.00
2019-02-26T14:24:07.244Z,8.37
2019-02-26T14:26:37.662Z,7.97
2019-02-26T14:29:08.235Z,7.70
2019-02-26T14:31:43.925Z,8.20
2019-02-26T14:34:14.406Z,7.97
2019-02-26T14:36:44.832Z,7.57
2019-02-26T14:39:15.347Z,7.30
2019-02-26T14:41:45.654Z,7.07
2019-02-26T14:44:16.370Z,7.07
2019-02-26T14:46:46.721Z,7.40
2019-02-26T14:49:17.040Z,6.23
2019-02-26T14:51:47.380Z,6.90
2019-02-26T14:54:18.110Z,6.63
2019-02-26T14:56:48.490Z,7.20
2019-02-26T14:59:18.799Z,7.50
2019-02-26T15:01:49.161Z,7.03
2019-02-26T15:04:19.831Z,6.60
2019-02-26T15:06:50.192Z,7.53
2019-02-26T15:09:20.572Z,7.50
2019-02-26T15:11:51.276Z,6.67
2019-02-26T15:14:22.389Z,7.27
2019-02-26T15:16:52.748Z,7.43
2019-02-26T15:19:23.157Z,7.60
2019-02-26T15:21:53.533Z,6.90
2019-02-26T15:24:23.959Z,8.07
2019-02-26T15:26:54.344Z,6.60
2019-02-26T15:29:24.706Z,7.13
2019-02-26T15:31:55.048Z,7.10
2019-02-26T15:34:25.411Z,6.90
2019-02-26T15:36:55.747Z,7.10
2019-02-26T15:39:26.769Z,7.17
2019-02-26T15:41:57.110Z,6.90
2019-02-26T15:44:28.794Z,6.97
2019-02-26T15:47:02.294Z,7.07
2019-02-26T15:49:32.045Z,6.70
2019-02-26T15:52:02.909Z,7.13
2019-02-26T15:54:33.858Z,6.60
2019-02-26T15:57:04.289Z,7.07
2019-02-26T15:59:35.604Z,7.70
2019-02-26T16:02:07.046Z,6.27
2019-02-26T16:04:37.820Z,8.40
2019-02-26T16:07:08.221Z,7.17
2019-02-26T16:09:39.061Z,7.20
2019-02-26T16:12:10.354Z,7.30
2019-02-26T16:14:41.160Z,7.20
2019-02-26T16:17:11.648Z,6.73
2019-02-26T16:19:43.731Z,7.60
2019-02-26T16:22:14.134Z,7.93
2019-02-26T16:24:44.610Z,7.50
2019-02-26T16:27:15.579Z,8.50
2019-02-26T16:29:46.008Z,7.67
2019-02-26T16:32:16.362Z,8.17
2019-02-26T16:34:47.093Z,7.50
2019-02-26T16:37:17.559Z,7.80
2019-02-26T16:39:48.467Z,8.13
2019-02-26T16:42:18.889Z,8.60
2019-02-26T16:44:49.297Z,9.30
2019-02-26T16:47:19.701Z,9.30
2019-02-26T16:49:51.726Z,9.47
2019-02-26T16:52:22.214Z,9.97
2019-02-26T16:54:52.585Z,9.73
2019-02-26T16:57:25.750Z,9.50
2019-02-26T16:59:55.350Z,8.93
2019-02-26T17:02:27.508Z,9.77
2019-02-26T17:04:58.824Z,8.37
2019-02-26T17:07:29.545Z,8.23
2019-02-26T17:10:00.362Z,8.73
2019-02-26T17:12:30.910Z,9.27
2019-02-26T17:15:01.344Z,9.07
2019-02-26T17:17:31.693Z,9.97
2019-02-26T17:20:02.503Z,10.27
2019-02-26T17:22:32.976Z,9.40
2019-02-26T17:25:04.275Z,10.80
2019-02-26T17:27:36.586Z,10.20
2019-02-26T17:30:08.803Z,10.83
2019-02-26T17:32:39.212Z,10.83
2019-02-26T17:35:10.899Z,11.13
2019-02-26T17:37:41.645Z,10.93
2019-02-26T17:40:13.646Z,10.87
2019-02-26T17:42:44.671Z,12.70
2019-02-26T17:45:22.294Z,12.70
2019-02-26T17:47:56.549Z,12.93
2019-02-26T17:50:27.106Z,13.43
2019-02-26T17:52:57.734Z,13.60
2019-02-26T17:55:28.371Z,13.47
2019-02-26T17:58:00.710Z,13.83
2019-02-26T18:00:34.256Z,13.23
2019-02-26T18:03:07.307Z,13.27
2019-02-26T18:05:40.481Z,13.70
2019-02-26T18:08:08.909Z,14.50
2019-02-26T18:10:39.193Z,15.90
2019-02-26T18:13:09.873Z,14.33
2019-02-26T18:15:40.488Z,14.03
2019-02-26T18:18:10.695Z,14.43
2019-02-26T18:20:40.986Z,13.73
2019-02-26T18:23:11.655Z,14.20
2019-02-26T18:25:42.253Z,16.30
2019-02-26T18:28:12.758Z,15.10
2019-02-26T18:30:43.011Z,15.67
2019-02-26T18:33:13.321Z,15.83
2019-02-26T18:35:44.373Z,15.20
2019-02-26T18:38:14.741Z,15.13
2019-02-26T18:40:44.992Z,16.30
2019-02-26T18:43:15.291Z,15.93
2019-02-26T18:45:45.523Z,16.20
2019-02-26T18:48:16.073Z,16.43
2019-02-26T18:50:46.619Z,16.77
2019-02-26T18:53:17.141Z,20.57
2019-02-26T18:55:47.388Z,19.03
2019-02-26T18:58:18.107Z,17.60
2019-02-26T19:00:48.857Z,17.93
2019-02-26T19:03:19.110Z,17.63
2019-02-26T19:05:51.766Z,17.40
2019-02-26T19:08:21.181Z,18.50
2019-02-26T19:10:53.297Z,17.53
2019-02-26T19:13:23.714Z,16.63
2019-02-26T19:15:54.379Z,17.57
2019-02-26T19:18:24.761Z,18.33
2019-02-26T19:20:55.053Z,17.93
2019-02-26T19:23:25.277Z,16.70
2019-02-26T19:25:55.817Z,17.90
2019-02-26T19:28:26.547Z,18.00
2019-02-26T19:30:58.786Z,17.57
2019-02-26T19:33:29.030Z,17.73
2019-02-26T19:35:59.732Z,18.77
2019-02-26T19:38:30.398Z,18.13
2019-02-26T19:41:03.415Z,17.47
2019-02-26T19:43:33.676Z,17.80
2019-02-26T19:46:04.318Z,17.63
2019-02-26T19:48:34.985Z,18.43
2019-02-26T19:51:05.600Z,18.57
2019-02-26T19:53:36.207Z,18.23
2019-02-26T19:56:06.478Z,19.97
2019-02-26T19:58:40.613Z,18.80
2019-02-26T20:01:09.008Z,19.43
2019-02-26T20:03:40.105Z,18.70
2019-02-26T20:06:10.768Z,20.57
2019-02-26T20:08:41.470Z,18.73
2019-02-26T20:11:11.690Z,20.53
2019-02-26T20:13:42.259Z,19.80
2019-02-26T20:16:12.950Z,19.33
2019-02-26T20:18:43.529Z,20.50
2019-02-26T20:21:16.881Z,19.43
2019-02-26T20:23:46.421Z,20.17
2019-02-26T20:26:17.291Z,19.02
2019-02-26T20:28:47.960Z,19.53
2019-02-26T20:31:21.454Z,20.67
2019-02-26T20:33:50.410Z,20.83
2019-02-26T20:36:20.753Z,20.60
2019-02-26T20:38:51.022Z,20.67
2019-02-26T20:41:22.217Z,20.33
2019-02-26T20:43:52.989Z,20.33
2019-02-26T20:46:25.213Z,19.83
2019-02-26T20:48:56.235Z,20.57
2019-02-26T20:51:27.704Z,21.17
2019-02-26T20:53:58.199Z,22.13
2019-02-26T20:56:30.842Z,19.67
2019-02-26T20:59:01.400Z,21.40
2019-02-26T21:01:32.625Z,23.07
2019-02-26T21:04:03.849Z,21.40
2019-02-26T21:06:34.185Z,20.67
2019-02-26T21:09:07.213Z,20.30
2019-02-26T21:11:38.020Z,21.50
2019-02-26T21:14:08.375Z,22.23
2019-02-26T21:16:39.026Z,21.47
2019-02-26T21:19:09.414Z,22.27
2019-02-26T21:21:39.835Z,21.40
2019-02-26T21:24:10.157Z,20.73
2019-02-26T21:26:40.747Z,21.80
2019-02-26T21:29:11.975Z,20.30
2019-02-26T21:31:42.380Z,21.30
2019-02-26T21:34:13.095Z,19.67
2019-02-26T21:36:43.400Z,21.07
2019-02-26T21:39:13.817Z,20.60
2019-02-26T21:41:44.074Z,22.30
2019-02-26T21:44:14.718Z,21.37
2019-02-26T21:46:45.004Z,20.97
2019-02-26T21:49:15.322Z,21.63
2019-02-26T21:51:45.613Z,21.17
2019-02-26T21:54:15.985Z,21.30
2019-02-26T21:56:48.715Z,21.17
2019-02-26T21:59:18.366Z,20.87
2019-02-26T22:01:48.641Z,20.67
2019-02-26T22:04:18.925Z,20.47
2019-02-26T22:06:49.893Z,21.80
2019-02-26T22:09:20.513Z,20.83
2019-02-26T22:11:51.366Z,20.90
2019-02-26T22:14:22.077Z,21.90
2019-02-26T22:16:52.353Z,21.07
2019-02-26T22:19:22.677Z,21.07
2019-02-26T22:21:53.445Z,23.20
2019-02-26T22:24:24.339Z,23.27
2019-02-26T22:26:54.589Z,22.80
2019-02-26T22:29:24.846Z,23.33
2019-02-26T22:31:55.480Z,20.73
2019-02-26T22:34:25.751Z,21.37
2019-02-26T22:36:56.060Z,21.63
2019-02-26T22:39:26.335Z,21.33
2019-02-26T22:41:56.566Z,22.53
2019-02-26T22:44:26.871Z,21.13
2019-02-26T22:46:59.105Z,23.50
2019-02-26T22:49:29.830Z,23.73
2019-02-26T22:52:00.475Z,23.47
2019-02-26T22:54:30.718Z,23.20
2019-02-26T22:57:01.367Z,23.30
2019-02-26T22:59:31.671Z,21.50
2019-02-26T23:02:03.483Z,22.80
2019-02-26T23:04:33.709Z,21.53
2019-02-26T23:07:05.351Z,21.23
2019-02-26T23:09:36.464Z,21.93
2019-02-26T23:12:07.530Z,21.97
2019-02-26T23:14:38.813Z,23.23
2019-02-26T23:17:10.601Z,22.20
2019-02-26T23:19:41.447Z,21.67
2019-02-26T23:22:12.048Z,22.30
2019-02-26T23:24:42.808Z,20.87
2019-02-26T23:27:15.194Z,20.97
2019-02-26T23:29:45.731Z,19.20
2019-02-26T23:32:16.447Z,21.67
2019-02-26T23:35:03.050Z,20.33
2019-02-26T23:37:34.717Z,21.93
2019-02-26T23:40:06.464Z,21.13
2019-02-26T23:42:38.548Z,20.90
2019-02-26T23:45:08.867Z,21.50
2019-02-26T23:47:39.116Z,21.60
2019-02-26T23:50:09.752Z,20.20
2019-02-26T23:52:40.638Z,21.50
2019-02-26T23:55:13.397Z,20.70
2019-02-26T23:57:43.523Z,21.10
